sensor_id;sensor_type;location;lat;lon;timestamp;temperature;humidity
48376;DHT22;34178;50.904;11.560;2024-01-07T00:00:13;2.40;99.90
48376;DHT22;34178;50.904;11.560;2024-01-07T00:02:38;2.30;99.90
48376;DHT22;34178;50.904;11.560;2024-01-07T00:05:04;2.40;99.90
48376;DHT22;34178;50.904;11.560;2024-01-07T00:07:30;2.40;99.90
48376;DHT22;34178;50.904;11.560;2024-01-07T00:09:56;2.30;99.90
48376;DHT22;34178;50.904;11.560;2024-01-07T00:12:21;2.30;99.90
48376;DHT22;34178;50.904;11.560;2024-01-07T00:14:47;2.30;99.90
48376;DHT22;34178;50.904;11.560;2024-01-07T00:17:12;2.30;99.90
48376;DHT22;34178;50.904;11.560;2024-01-07T00:19:38;2.20;99.90
48376;DHT22;34178;50.904;11.560;2024-01-07T00:22:05;2.20;99.90
48376;DHT22;34178;50.904;11.560;2024-01-07T00:24:30;2.20;99.90
48376;DHT22;34178;50.904;11.560;2024-01-07T00:26:56;2.20;99.90
48376;DHT22;34178;50.904;11.560;2024-01-07T00:29:21;2.20;99.90
48376;DHT22;34178;50.904;11.560;2024-01-07T00:31:47;2.20;99.90
48376;DHT22;34178;50.904;11.560;2024-01-07T00:34:12;2.20;99.90
48376;DHT22;34178;50.904;11.560;2024-01-07T00:36:38;2.10;99.90
48376;DHT22;34178;50.904;11.560;2024-01-07T00:39:03;2.10;99.90
48376;DHT22;34178;50.904;11.560;2024-01-07T00:41:29;2.10;99.90
48376;DHT22;34178;50.904;11.560;2024-01-07T00:43:55;2.10;99.90
48376;DHT22;34178;50.904;11.560;2024-01-07T00:46:21;2.10;99.90
48376;DHT22;34178;50.904;11.560;2024-01-07T00:48:46;2.00;99.90
48376;DHT22;34178;50.904;11.560;2024-01-07T00:51:12;2.00;99.90
48376;DHT22;34178;50.904;11.560;2024-01-07T00:53:37;2.00;99.90
48376;DHT22;34178;50.904;11.560;2024-01-07T00:56:03;2.00;99.90
48376;DHT22;34178;50.904;11.560;2024-01-07T00:58:29;2.00;99.90
48376;DHT22;34178;50.904;11.560;2024-01-07T01:00:54;2.00;99.90
48376;DHT22;34178;50.904;11.560;2024-01-07T01:03:20;2.00;99.90
48376;DHT22;34178;50.904;11.560;2024-01-07T01:05:46;2.00;99.90
48376;DHT22;34178;50.904;11.560;2024-01-07T01:08:11;2.00;99.90
48376;DHT22;34178;50.904;11.560;2024-01-07T01:10:37;2.00;99.90
48376;DHT22;34178;50.904;11.560;2024-01-07T01:13:03;2.00;99.90
48376;DHT22;34178;50.904;11.560;2024-01-07T01:15:28;2.00;99.90
48376;DHT22;34178;50.904;11.560;2024-01-07T01:17:54;2.00;99.90
48376;DHT22;34178;50.904;11.560;2024-01-07T01:20:19;2.00;99.90
48376;DHT22;34178;50.904;11.560;2024-01-07T01:22:45;1.90;99.90
48376;DHT22;34178;50.904;11.560;2024-01-07T01:25:10;1.90;99.90
48376;DHT22;34178;50.904;11.560;2024-01-07T01:27:36;1.90;99.90
48376;DHT22;34178;50.904;11.560;2024-01-07T01:30:02;1.80;99.90
48376;DHT22;34178;50.904;11.560;2024-01-07T01:32:28;1.80;99.90
48376;DHT22;34178;50.904;11.560;2024-01-07T01:34:53;1.80;99.90
48376;DHT22;34178;50.904;11.560;2024-01-07T01:37:19;1.80;99.90
48376;DHT22;34178;50.904;11.560;2024-01-07T01:39:44;1.80;99.90
48376;DHT22;34178;50.904;11.560;2024-01-07T01:42:10;1.80;99.90
48376;DHT22;34178;50.904;11.560;2024-01-07T01:44:35;1.90;99.90
48376;DHT22;34178;50.904;11.560;2024-01-07T01:47:01;1.80;99.90
48376;DHT22;34178;50.904;11.560;2024-01-07T01:49:27;1.90;99.90
48376;DHT22;34178;50.904;11.560;2024-01-07T01:51:53;1.80;99.90
48376;DHT22;34178;50.904;11.560;2024-01-07T01:54:18;1.90;99.90
48376;DHT22;34178;50.904;11.560;2024-01-07T01:56:45;1.80;99.90
48376;DHT22;34178;50.904;11.560;2024-01-07T01:59:11;1.90;99.90
48376;DHT22;34178;50.904;11.560;2024-01-07T02:01:36;1.90;99.90
48376;DHT22;34178;50.904;11.560;2024-01-07T02:04:02;1.80;99.90
48376;DHT22;34178;50.904;11.560;2024-01-07T02:06:28;1.90;99.90
48376;DHT22;34178;50.904;11.560;2024-01-07T02:08:54;1.80;99.90
48376;DHT22;34178;50.904;11.560;2024-01-07T02:11:20;1.80;99.90
48376;DHT22;34178;50.904;11.560;2024-01-07T02:13:47;1.80;99.90
48376;DHT22;34178;50.904;11.560;2024-01-07T02:16:13;1.70;99.90
48376;DHT22;34178;50.904;11.560;2024-01-07T02:18:42;1.70;99.90
48376;DHT22;34178;50.904;11.560;2024-01-07T02:21:08;1.70;99.90
48376;DHT22;34178;50.904;11.560;2024-01-07T02:23:34;1.60;99.90
48376;DHT22;34178;50.904;11.560;2024-01-07T02:26:00;1.60;99.90
48376;DHT22;34178;50.904;11.560;2024-01-07T02:28:25;1.50;99.90
48376;DHT22;34178;50.904;11.560;2024-01-07T02:30:51;1.60;99.90
48376;DHT22;34178;50.904;11.560;2024-01-07T02:33:16;1.60;99.90
48376;DHT22;34178;50.904;11.560;2024-01-07T02:35:42;1.50;99.90
48376;DHT22;34178;50.904;11.560;2024-01-07T02:38:07;1.50;99.90
48376;DHT22;34178;50.904;11.560;2024-01-07T02:40:33;1.60;99.90
48376;DHT22;34178;50.904;11.560;2024-01-07T02:42:58;1.50;99.90
48376;DHT22;34178;50.904;11.560;2024-01-07T02:45:24;1.50;99.90
48376;DHT22;34178;50.904;11.560;2024-01-07T02:47:49;1.50;99.90
48376;DHT22;34178;50.904;11.560;2024-01-07T02:50:15;1.50;99.90
48376;DHT22;34178;50.904;11.560;2024-01-07T02:52:41;1.50;99.90
48376;DHT22;34178;50.904;11.560;2024-01-07T02:55:07;1.50;99.90
48376;DHT22;34178;50.904;11.560;2024-01-07T02:57:33;1.40;99.90
48376;DHT22;34178;50.904;11.560;2024-01-07T02:59:58;1.40;99.90
48376;DHT22;34178;50.904;11.560;2024-01-07T03:02:24;1.40;99.90
48376;DHT22;34178;50.904;11.560;2024-01-07T03:04:49;1.40;99.90
48376;DHT22;34178;50.904;11.560;2024-01-07T03:07:15;1.50;99.90
48376;DHT22;34178;50.904;11.560;2024-01-07T03:09:40;1.50;99.90
48376;DHT22;34178;50.904;11.560;2024-01-07T03:12:06;1.40;99.90
48376;DHT22;34178;50.904;11.560;2024-01-07T03:14:31;1.40;99.90
48376;DHT22;34178;50.904;11.560;2024-01-07T03:16:57;1.40;99.90
48376;DHT22;34178;50.904;11.560;2024-01-07T03:19:22;1.40;99.90
48376;DHT22;34178;50.904;11.560;2024-01-07T03:21:48;1.40;99.90
48376;DHT22;34178;50.904;11.560;2024-01-07T03:24:14;1.40;99.90
48376;DHT22;34178;50.904;11.560;2024-01-07T03:26:39;1.40;99.90
48376;DHT22;34178;50.904;11.560;2024-01-07T03:29:05;1.40;99.90
48376;DHT22;34178;50.904;11.560;2024-01-07T03:31:31;1.30;99.90
48376;DHT22;34178;50.904;11.560;2024-01-07T03:33:56;1.30;99.90
48376;DHT22;34178;50.904;11.560;2024-01-07T03:36:22;1.30;99.90
48376;DHT22;34178;50.904;11.560;2024-01-07T03:38:48;1.30;99.90
48376;DHT22;34178;50.904;11.560;2024-01-07T03:41:17;1.30;99.90
48376;DHT22;34178;50.904;11.560;2024-01-07T03:43:48;1.20;99.90
48376;DHT22;34178;50.904;11.560;2024-01-07T03:46:14;1.20;99.90
48376;DHT22;34178;50.904;11.560;2024-01-07T03:48:40;1.20;99.90
48376;DHT22;34178;50.904;11.560;2024-01-07T03:51:06;1.10;99.90
48376;DHT22;34178;50.904;11.560;2024-01-07T03:53:31;1.10;99.90
48376;DHT22;34178;50.904;11.560;2024-01-07T03:55:57;1.00;99.90
48376;DHT22;34178;50.904;11.560;2024-01-07T03:58:23;1.00;99.90
48376;DHT22;34178;50.904;11.560;2024-01-07T04:00:48;1.00;99.90
48376;DHT22;34178;50.904;11.560;2024-01-07T04:03:14;1.00;99.90
48376;DHT22;34178;50.904;11.560;2024-01-07T04:05:39;1.00;99.90
48376;DHT22;34178;50.904;11.560;2024-01-07T04:08:05;1.00;99.90
48376;DHT22;34178;50.904;11.560;2024-01-07T04:10:30;1.00;99.90
48376;DHT22;34178;50.904;11.560;2024-01-07T04:12:56;1.00;99.90
48376;DHT22;34178;50.904;11.560;2024-01-07T04:15:21;0.90;99.90
48376;DHT22;34178;50.904;11.560;2024-01-07T04:17:47;0.80;99.90
48376;DHT22;34178;50.904;11.560;2024-01-07T04:20:13;0.80;99.90
48376;DHT22;34178;50.904;11.560;2024-01-07T04:22:39;0.80;99.90
48376;DHT22;34178;50.904;11.560;2024-01-07T04:25:04;0.80;99.90
48376;DHT22;34178;50.904;11.560;2024-01-07T04:27:34;0.80;99.90
48376;DHT22;34178;50.904;11.560;2024-01-07T04:30:00;0.80;99.90
48376;DHT22;34178;50.904;11.560;2024-01-07T04:32:26;0.80;99.90
48376;DHT22;34178;50.904;11.560;2024-01-07T04:34:51;0.70;99.90
48376;DHT22;34178;50.904;11.560;2024-01-07T04:37:17;0.70;99.90
48376;DHT22;34178;50.904;11.560;2024-01-07T04:39:42;0.70;99.90
48376;DHT22;34178;50.904;11.560;2024-01-07T04:42:08;0.70;99.90
48376;DHT22;34178;50.904;11.560;2024-01-07T04:44:33;0.70;99.90
48376;DHT22;34178;50.904;11.560;2024-01-07T04:46:59;0.70;99.90
48376;DHT22;34178;50.904;11.560;2024-01-07T04:49:24;0.70;99.90
48376;DHT22;34178;50.904;11.560;2024-01-07T04:51:50;0.70;99.90
48376;DHT22;34178;50.904;11.560;2024-01-07T04:54:15;0.70;99.90
48376;DHT22;34178;50.904;11.560;2024-01-07T04:56:41;0.60;99.90
48376;DHT22;34178;50.904;11.560;2024-01-07T04:59:07;0.50;99.90
48376;DHT22;34178;50.904;11.560;2024-01-07T05:01:32;0.50;99.90
48376;DHT22;34178;50.904;11.560;2024-01-07T05:03:59;0.50;99.90
48376;DHT22;34178;50.904;11.560;2024-01-07T05:06:24;0.50;99.90
48376;DHT22;34178;50.904;11.560;2024-01-07T05:08:50;0.50;99.90
48376;DHT22;34178;50.904;11.560;2024-01-07T05:11:15;0.50;99.90
48376;DHT22;34178;50.904;11.560;2024-01-07T05:13:42;0.50;99.90
48376;DHT22;34178;50.904;11.560;2024-01-07T05:16:08;0.50;99.90
48376;DHT22;34178;50.904;11.560;2024-01-07T05:18:33;0.50;99.90
48376;DHT22;34178;50.904;11.560;2024-01-07T05:20:59;0.50;99.90
48376;DHT22;34178;50.904;11.560;2024-01-07T05:23:24;0.50;99.90
48376;DHT22;34178;50.904;11.560;2024-01-07T05:25:50;0.50;99.90
48376;DHT22;34178;50.904;11.560;2024-01-07T05:28:15;0.50;99.90
48376;DHT22;34178;50.904;11.560;2024-01-07T05:30:45;0.50;99.90
48376;DHT22;34178;50.904;11.560;2024-01-07T05:33:10;0.50;99.90
48376;DHT22;34178;50.904;11.560;2024-01-07T05:35:36;0.40;99.90
48376;DHT22;34178;50.904;11.560;2024-01-07T05:38:01;0.40;99.90
48376;DHT22;34178;50.904;11.560;2024-01-07T05:40:27;0.40;99.90
48376;DHT22;34178;50.904;11.560;2024-01-07T05:42:52;0.40;99.90
48376;DHT22;34178;50.904;11.560;2024-01-07T05:45:18;0.40;99.90
48376;DHT22;34178;50.904;11.560;2024-01-07T05:47:44;0.30;99.90
48376;DHT22;34178;50.904;11.560;2024-01-07T05:50:09;0.30;99.90
48376;DHT22;34178;50.904;11.560;2024-01-07T05:52:36;0.30;99.90
48376;DHT22;34178;50.904;11.560;2024-01-07T05:55:01;0.30;99.90
48376;DHT22;34178;50.904;11.560;2024-01-07T05:57:27;0.30;99.90
48376;DHT22;34178;50.904;11.560;2024-01-07T05:59:53;0.20;99.90
48376;DHT22;34178;50.904;11.560;2024-01-07T06:02:19;0.20;99.90
48376;DHT22;34178;50.904;11.560;2024-01-07T06:04:45;0.20;99.90
48376;DHT22;34178;50.904;11.560;2024-01-07T06:07:10;0.20;99.90
48376;DHT22;34178;50.904;11.560;2024-01-07T06:09:36;0.20;99.90
48376;DHT22;34178;50.904;11.560;2024-01-07T06:12:01;0.20;99.90
48376;DHT22;34178;50.904;11.560;2024-01-07T06:14:27;0.20;99.90
48376;DHT22;34178;50.904;11.560;2024-01-07T06:16:52;0.20;99.90
48376;DHT22;34178;50.904;11.560;2024-01-07T06:19:18;0.20;99.90
48376;DHT22;34178;50.904;11.560;2024-01-07T06:21:43;0.20;99.90
48376;DHT22;34178;50.904;11.560;2024-01-07T06:24:09;0.10;99.90
48376;DHT22;34178;50.904;11.560;2024-01-07T06:26:35;0.10;99.90
48376;DHT22;34178;50.904;11.560;2024-01-07T06:29:00;0.10;99.90
48376;DHT22;34178;50.904;11.560;2024-01-07T06:31:26;0.10;99.90
48376;DHT22;34178;50.904;11.560;2024-01-07T06:33:52;0.10;99.90
48376;DHT22;34178;50.904;11.560;2024-01-07T06:36:18;0.10;99.90
48376;DHT22;34178;50.904;11.560;2024-01-07T06:38:43;0.10;99.90
48376;DHT22;34178;50.904;11.560;2024-01-07T06:41:09;0.00;99.90
48376;DHT22;34178;50.904;11.560;2024-01-07T06:43:35;0.10;99.90
48376;DHT22;34178;50.904;11.560;2024-01-07T06:46:01;0.00;99.90
48376;DHT22;34178;50.904;11.560;2024-01-07T06:48:26;0.00;99.90
48376;DHT22;34178;50.904;11.560;2024-01-07T06:50:52;0.00;99.90
48376;DHT22;34178;50.904;11.560;2024-01-07T06:53:17;0.00;99.90
48376;DHT22;34178;50.904;11.560;2024-01-07T06:55:43;0.00;99.90
48376;DHT22;34178;50.904;11.560;2024-01-07T06:58:09;-0.10;99.90
48376;DHT22;34178;50.904;11.560;2024-01-07T07:00:34;-0.10;99.90
48376;DHT22;34178;50.904;11.560;2024-01-07T07:03:00;-0.10;99.90
48376;DHT22;34178;50.904;11.560;2024-01-07T07:05:25;-0.10;99.90
48376;DHT22;34178;50.904;11.560;2024-01-07T07:07:51;-0.20;99.90
48376;DHT22;34178;50.904;11.560;2024-01-07T07:10:16;-0.20;99.90
48376;DHT22;34178;50.904;11.560;2024-01-07T07:12:42;-0.20;99.90
48376;DHT22;34178;50.904;11.560;2024-01-07T07:15:07;-0.20;99.90
48376;DHT22;34178;50.904;11.560;2024-01-07T07:17:36;-0.10;99.90
48376;DHT22;34178;50.904;11.560;2024-01-07T07:20:01;-0.20;99.90
48376;DHT22;34178;50.904;11.560;2024-01-07T07:22:27;-0.10;99.90
48376;DHT22;34178;50.904;11.560;2024-01-07T07:24:53;-0.20;99.90
48376;DHT22;34178;50.904;11.560;2024-01-07T07:27:19;-0.20;99.90
48376;DHT22;34178;50.904;11.560;2024-01-07T07:29:44;-0.20;99.90
48376;DHT22;34178;50.904;11.560;2024-01-07T07:32:10;-0.20;99.90
48376;DHT22;34178;50.904;11.560;2024-01-07T07:34:36;-0.20;99.90
48376;DHT22;34178;50.904;11.560;2024-01-07T07:37:02;-0.20;99.90
48376;DHT22;34178;50.904;11.560;2024-01-07T07:39:27;-0.30;99.90
48376;DHT22;34178;50.904;11.560;2024-01-07T07:41:53;-0.30;99.90
48376;DHT22;34178;50.904;11.560;2024-01-07T07:44:19;-0.30;99.90
48376;DHT22;34178;50.904;11.560;2024-01-07T07:46:44;-0.30;99.90
48376;DHT22;34178;50.904;11.560;2024-01-07T07:49:10;-0.20;99.90
48376;DHT22;34178;50.904;11.560;2024-01-07T07:51:36;-0.20;99.90
48376;DHT22;34178;50.904;11.560;2024-01-07T07:54:02;-0.20;99.90
48376;DHT22;34178;50.904;11.560;2024-01-07T07:56:28;-0.30;99.90
48376;DHT22;34178;50.904;11.560;2024-01-07T07:58:54;-0.20;99.90
48376;DHT22;34178;50.904;11.560;2024-01-07T08:01:19;-0.20;99.90
48376;DHT22;34178;50.904;11.560;2024-01-07T08:03:45;-0.20;99.90
48376;DHT22;34178;50.904;11.560;2024-01-07T08:06:11;-0.20;99.90
48376;DHT22;34178;50.904;11.560;2024-01-07T08:08:36;-0.20;99.90
48376;DHT22;34178;50.904;11.560;2024-01-07T08:11:02;-0.20;99.90
48376;DHT22;34178;50.904;11.560;2024-01-07T08:13:28;-0.20;99.90
48376;DHT22;34178;50.904;11.560;2024-01-07T08:15:53;-0.30;99.90
48376;DHT22;34178;50.904;11.560;2024-01-07T08:18:19;-0.20;99.90
48376;DHT22;34178;50.904;11.560;2024-01-07T08:20:44;-0.20;99.90
48376;DHT22;34178;50.904;11.560;2024-01-07T08:23:10;-0.30;99.90
48376;DHT22;34178;50.904;11.560;2024-01-07T08:25:36;-0.30;99.90
48376;DHT22;34178;50.904;11.560;2024-01-07T08:28:01;-0.30;99.90
48376;DHT22;34178;50.904;11.560;2024-01-07T08:30:27;-0.30;99.90
48376;DHT22;34178;50.904;11.560;2024-01-07T08:32:52;-0.30;99.90
48376;DHT22;34178;50.904;11.560;2024-01-07T08:35:18;-0.30;99.90
48376;DHT22;34178;50.904;11.560;2024-01-07T08:37:43;-0.20;99.90
48376;DHT22;34178;50.904;11.560;2024-01-07T08:40:10;-0.20;99.90
48376;DHT22;34178;50.904;11.560;2024-01-07T08:42:36;-0.20;99.90
48376;DHT22;34178;50.904;11.560;2024-01-07T08:45:01;-0.20;99.90
48376;DHT22;34178;50.904;11.560;2024-01-07T08:47:29;-0.20;99.90
48376;DHT22;34178;50.904;11.560;2024-01-07T08:49:56;-0.10;99.90
48376;DHT22;34178;50.904;11.560;2024-01-07T08:52:22;-0.20;99.90
48376;DHT22;34178;50.904;11.560;2024-01-07T08:54:47;-0.20;99.90
48376;DHT22;34178;50.904;11.560;2024-01-07T08:57:13;-0.20;99.90
48376;DHT22;34178;50.904;11.560;2024-01-07T08:59:39;-0.20;99.90
48376;DHT22;34178;50.904;11.560;2024-01-07T09:02:04;-0.20;99.90
48376;DHT22;34178;50.904;11.560;2024-01-07T09:04:30;-0.20;99.90
48376;DHT22;34178;50.904;11.560;2024-01-07T09:06:55;-0.30;99.90
48376;DHT22;34178;50.904;11.560;2024-01-07T09:09:21;-0.30;99.90
48376;DHT22;34178;50.904;11.560;2024-01-07T09:11:47;-0.30;99.90
48376;DHT22;34178;50.904;11.560;2024-01-07T09:14:12;-0.30;99.90
48376;DHT22;34178;50.904;11.560;2024-01-07T09:16:40;-0.20;99.90
48376;DHT22;34178;50.904;11.560;2024-01-07T09:19:05;-0.30;99.90
48376;DHT22;34178;50.904;11.560;2024-01-07T09:21:31;-0.40;99.90
48376;DHT22;34178;50.904;11.560;2024-01-07T09:23:56;-0.40;99.90
48376;DHT22;34178;50.904;11.560;2024-01-07T09:26:22;-0.30;99.90
48376;DHT22;34178;50.904;11.560;2024-01-07T09:28:47;-0.40;99.90
48376;DHT22;34178;50.904;11.560;2024-01-07T09:31:15;-0.40;99.90
48376;DHT22;34178;50.904;11.560;2024-01-07T09:33:41;-0.40;99.90
48376;DHT22;34178;50.904;11.560;2024-01-07T09:36:06;-0.50;99.90
48376;DHT22;34178;50.904;11.560;2024-01-07T09:38:32;-0.50;99.90
48376;DHT22;34178;50.904;11.560;2024-01-07T09:40:58;-0.60;99.90
48376;DHT22;34178;50.904;11.560;2024-01-07T09:43:23;-0.50;99.90
48376;DHT22;34178;50.904;11.560;2024-01-07T09:45:50;-0.50;99.90
48376;DHT22;34178;50.904;11.560;2024-01-07T09:48:17;-0.50;99.90
48376;DHT22;34178;50.904;11.560;2024-01-07T09:50:42;-0.60;99.90
48376;DHT22;34178;50.904;11.560;2024-01-07T09:53:11;-0.50;99.90
48376;DHT22;34178;50.904;11.560;2024-01-07T09:55:41;-0.50;99.90
48376;DHT22;34178;50.904;11.560;2024-01-07T09:58:11;-0.50;99.90
48376;DHT22;34178;50.904;11.560;2024-01-07T10:00:36;-0.50;99.90
48376;DHT22;34178;50.904;11.560;2024-01-07T10:03:03;-0.50;99.90
48376;DHT22;34178;50.904;11.560;2024-01-07T10:05:28;-0.40;99.90
48376;DHT22;34178;50.904;11.560;2024-01-07T10:07:54;-0.50;99.90
48376;DHT22;34178;50.904;11.560;2024-01-07T10:10:22;-0.50;99.90
48376;DHT22;34178;50.904;11.560;2024-01-07T10:12:48;-0.60;99.90
48376;DHT22;34178;50.904;11.560;2024-01-07T10:15:13;-0.60;99.90
48376;DHT22;34178;50.904;11.560;2024-01-07T10:17:42;-0.60;99.90
48376;DHT22;34178;50.904;11.560;2024-01-07T10:20:08;-0.60;99.90
48376;DHT22;34178;50.904;11.560;2024-01-07T10:22:37;-0.70;99.90
48376;DHT22;34178;50.904;11.560;2024-01-07T10:25:03;-0.70;99.90
48376;DHT22;34178;50.904;11.560;2024-01-07T10:27:29;-0.70;99.90
48376;DHT22;34178;50.904;11.560;2024-01-07T10:29:57;-0.70;99.90
48376;DHT22;34178;50.904;11.560;2024-01-07T10:32:23;-0.70;99.90
48376;DHT22;34178;50.904;11.560;2024-01-07T10:34:49;-0.70;99.90
48376;DHT22;34178;50.904;11.560;2024-01-07T10:37:16;-0.70;99.90
48376;DHT22;34178;50.904;11.560;2024-01-07T10:39:42;-0.70;99.90
48376;DHT22;34178;50.904;11.560;2024-01-07T10:42:07;-0.80;99.90
48376;DHT22;34178;50.904;11.560;2024-01-07T10:44:33;-0.80;99.90
48376;DHT22;34178;50.904;11.560;2024-01-07T10:47:00;-0.90;99.90
48376;DHT22;34178;50.904;11.560;2024-01-07T10:49:29;-0.90;99.90
48376;DHT22;34178;50.904;11.560;2024-01-07T10:54:24;-0.90;99.90
48376;DHT22;34178;50.904;11.560;2024-01-07T10:56:52;-0.90;99.90
48376;DHT22;34178;50.904;11.560;2024-01-07T10:59:20;-0.90;99.90
48376;DHT22;34178;50.904;11.560;2024-01-07T11:01:46;-0.90;99.90
48376;DHT22;34178;50.904;11.560;2024-01-07T11:04:17;-0.90;99.90
48376;DHT22;34178;50.904;11.560;2024-01-07T11:09:19;-0.80;99.90
48376;DHT22;34178;50.904;11.560;2024-01-07T11:11:46;-0.80;99.90
48376;DHT22;34178;50.904;11.560;2024-01-07T11:16:57;-0.80;99.90
48376;DHT22;34178;50.904;11.560;2024-01-07T11:19:23;-0.80;99.90
48376;DHT22;34178;50.904;11.560;2024-01-07T11:21:48;-0.80;99.90
48376;DHT22;34178;50.904;11.560;2024-01-07T11:27:09;-0.80;99.90
48376;DHT22;34178;50.904;11.560;2024-01-07T11:29:35;-0.80;99.90
48376;DHT22;34178;50.904;11.560;2024-01-07T11:32:00;-0.70;99.90
48376;DHT22;34178;50.904;11.560;2024-01-07T11:34:39;-0.80;99.90
48376;DHT22;34178;50.904;11.560;2024-01-07T11:37:11;-0.70;99.90
48376;DHT22;34178;50.904;11.560;2024-01-07T11:39:47;-0.70;99.90
48376;DHT22;34178;50.904;11.560;2024-01-07T11:42:13;-0.80;99.90
48376;DHT22;34178;50.904;11.560;2024-01-07T11:44:46;-0.80;99.90
48376;DHT22;34178;50.904;11.560;2024-01-07T11:47:12;-0.80;99.90
48376;DHT22;34178;50.904;11.560;2024-01-07T11:49:39;-0.80;99.90
48376;DHT22;34178;50.904;11.560;2024-01-07T11:52:04;-0.90;99.90
48376;DHT22;34178;50.904;11.560;2024-01-07T11:54:31;-0.90;99.90
48376;DHT22;34178;50.904;11.560;2024-01-07T11:56:56;-0.90;99.90
48376;DHT22;34178;50.904;11.560;2024-01-07T11:59:22;-0.80;99.90
48376;DHT22;34178;50.904;11.560;2024-01-07T12:01:48;-0.80;99.90
48376;DHT22;34178;50.904;11.560;2024-01-07T12:04:13;-0.80;99.90
48376;DHT22;34178;50.904;11.560;2024-01-07T12:06:39;-0.70;99.90
48376;DHT22;34178;50.904;11.560;2024-01-07T12:09:05;-0.70;99.90
48376;DHT22;34178;50.904;11.560;2024-01-07T12:11:31;-0.70;99.90
48376;DHT22;34178;50.904;11.560;2024-01-07T12:13:56;-0.70;99.90
48376;DHT22;34178;50.904;11.560;2024-01-07T12:16:22;-0.70;99.90
48376;DHT22;34178;50.904;11.560;2024-01-07T12:18:48;-0.60;99.90
48376;DHT22;34178;50.904;11.560;2024-01-07T12:21:18;-0.60;99.90
48376;DHT22;34178;50.904;11.560;2024-01-07T12:23:47;-0.60;99.90
48376;DHT22;34178;50.904;11.560;2024-01-07T12:26:13;-0.60;99.90
48376;DHT22;34178;50.904;11.560;2024-01-07T12:28:38;-0.50;99.90
48376;DHT22;34178;50.904;11.560;2024-01-07T12:31:04;-0.50;99.90
48376;DHT22;34178;50.904;11.560;2024-01-07T12:33:30;-0.40;99.90
48376;DHT22;34178;50.904;11.560;2024-01-07T12:35:57;-0.40;99.90
48376;DHT22;34178;50.904;11.560;2024-01-07T12:38:26;-0.30;99.90
48376;DHT22;34178;50.904;11.560;2024-01-07T12:40:52;-0.30;99.90
48376;DHT22;34178;50.904;11.560;2024-01-07T12:43:17;-0.30;99.90
48376;DHT22;34178;50.904;11.560;2024-01-07T12:45:43;-0.30;99.90
48376;DHT22;34178;50.904;11.560;2024-01-07T12:48:09;-0.30;99.90
48376;DHT22;34178;50.904;11.560;2024-01-07T12:50:35;-0.30;99.90
48376;DHT22;34178;50.904;11.560;2024-01-07T12:53:00;-0.20;99.90
48376;DHT22;34178;50.904;11.560;2024-01-07T12:55:26;-0.20;99.90
48376;DHT22;34178;50.904;11.560;2024-01-07T12:57:51;-0.20;99.90
48376;DHT22;34178;50.904;11.560;2024-01-07T13:00:17;-0.20;99.90
48376;DHT22;34178;50.904;11.560;2024-01-07T13:02:43;-0.30;99.90
48376;DHT22;34178;50.904;11.560;2024-01-07T13:05:09;-0.30;99.90
48376;DHT22;34178;50.904;11.560;2024-01-07T13:07:34;-0.20;99.90
48376;DHT22;34178;50.904;11.560;2024-01-07T13:10:00;-0.10;99.90
48376;DHT22;34178;50.904;11.560;2024-01-07T13:12:26;0.00;99.90
48376;DHT22;34178;50.904;11.560;2024-01-07T13:14:52;-0.10;99.90
48376;DHT22;34178;50.904;11.560;2024-01-07T13:17:18;-0.10;99.90
48376;DHT22;34178;50.904;11.560;2024-01-07T13:19:43;0.00;99.90
48376;DHT22;34178;50.904;11.560;2024-01-07T13:22:09;0.00;99.90
48376;DHT22;34178;50.904;11.560;2024-01-07T13:24:35;0.00;99.90
48376;DHT22;34178;50.904;11.560;2024-01-07T13:27:01;0.00;99.90
48376;DHT22;34178;50.904;11.560;2024-01-07T13:29:27;0.10;99.90
48376;DHT22;34178;50.904;11.560;2024-01-07T13:31:52;0.10;99.90
48376;DHT22;34178;50.904;11.560;2024-01-07T13:34:18;0.10;99.90
48376;DHT22;34178;50.904;11.560;2024-01-07T13:36:46;0.10;99.90
48376;DHT22;34178;50.904;11.560;2024-01-07T13:39:12;0.10;99.90
48376;DHT22;34178;50.904;11.560;2024-01-07T13:41:37;0.20;99.90
48376;DHT22;34178;50.904;11.560;2024-01-07T13:44:03;0.20;99.90
48376;DHT22;34178;50.904;11.560;2024-01-07T13:46:28;0.10;99.90
48376;DHT22;34178;50.904;11.560;2024-01-07T13:48:54;0.10;99.90
48376;DHT22;34178;50.904;11.560;2024-01-07T13:51:20;0.00;99.90
48376;DHT22;34178;50.904;11.560;2024-01-07T13:53:45;0.00;99.90
48376;DHT22;34178;50.904;11.560;2024-01-07T13:56:11;0.00;99.90
48376;DHT22;34178;50.904;11.560;2024-01-07T13:58:37;0.00;99.90
48376;DHT22;34178;50.904;11.560;2024-01-07T14:01:03;-0.10;99.90
48376;DHT22;34178;50.904;11.560;2024-01-07T14:03:28;-0.10;99.90
48376;DHT22;34178;50.904;11.560;2024-01-07T14:05:55;-0.10;99.90
48376;DHT22;34178;50.904;11.560;2024-01-07T14:08:21;-0.10;99.90
48376;DHT22;34178;50.904;11.560;2024-01-07T14:10:47;-0.20;99.90
48376;DHT22;34178;50.904;11.560;2024-01-07T14:13:13;-0.20;99.90
48376;DHT22;34178;50.904;11.560;2024-01-07T14:15:39;-0.20;99.90
48376;DHT22;34178;50.904;11.560;2024-01-07T14:18:04;-0.20;99.90
48376;DHT22;34178;50.904;11.560;2024-01-07T14:20:30;-0.30;99.90
48376;DHT22;34178;50.904;11.560;2024-01-07T14:22:56;-0.30;99.90
48376;DHT22;34178;50.904;11.560;2024-01-07T14:25:21;-0.40;99.90
48376;DHT22;34178;50.904;11.560;2024-01-07T14:27:47;-0.40;99.90
48376;DHT22;34178;50.904;11.560;2024-01-07T14:30:13;-0.40;99.90
48376;DHT22;34178;50.904;11.560;2024-01-07T14:32:41;-0.40;99.90
48376;DHT22;34178;50.904;11.560;2024-01-07T14:35:07;-0.40;99.90
48376;DHT22;34178;50.904;11.560;2024-01-07T14:37:32;-0.40;99.90
48376;DHT22;34178;50.904;11.560;2024-01-07T14:39:58;-0.40;99.90
48376;DHT22;34178;50.904;11.560;2024-01-07T14:42:23;-0.40;99.90
48376;DHT22;34178;50.904;11.560;2024-01-07T14:44:49;-0.40;99.90
48376;DHT22;34178;50.904;11.560;2024-01-07T14:47:15;-0.40;99.90
48376;DHT22;34178;50.904;11.560;2024-01-07T14:49:41;-0.40;99.90
48376;DHT22;34178;50.904;11.560;2024-01-07T14:52:06;-0.40;99.90
48376;DHT22;34178;50.904;11.560;2024-01-07T14:54:32;-0.40;99.90
48376;DHT22;34178;50.904;11.560;2024-01-07T14:56:58;-0.40;99.90
48376;DHT22;34178;50.904;11.560;2024-01-07T14:59:24;-0.50;99.90
48376;DHT22;34178;50.904;11.560;2024-01-07T15:01:49;-0.40;99.90
48376;DHT22;34178;50.904;11.560;2024-01-07T15:04:15;-0.50;99.90
48376;DHT22;34178;50.904;11.560;2024-01-07T15:06:43;-0.50;99.90
48376;DHT22;34178;50.904;11.560;2024-01-07T15:09:11;-0.50;99.90
48376;DHT22;34178;50.904;11.560;2024-01-07T15:11:37;-0.50;99.90
48376;DHT22;34178;50.904;11.560;2024-01-07T15:14:10;-0.50;99.90
48376;DHT22;34178;50.904;11.560;2024-01-07T15:16:35;-0.50;99.90
48376;DHT22;34178;50.904;11.560;2024-01-07T15:19:01;-0.60;99.90
48376;DHT22;34178;50.904;11.560;2024-01-07T15:21:27;-0.50;99.90
48376;DHT22;34178;50.904;11.560;2024-01-07T15:23:53;-0.60;99.90